sensor_id;sensor_type;location;lat;lon;timestamp;pressure;altitude;pressure_sealevel;temperature;humidity
14790;BME280;7486;51.010;10.366;2022-09-09T00:01:29;97798.63;;;12.38;72.85
14790;BME280;7486;51.010;10.366;2022-09-09T00:09:40;97764.56;;;12.35;72.07
14790;BME280;7486;51.010;10.366;2022-09-09T00:12:17;97789.19;;;12.54;71.88
14790;BME280;7486;51.010;10.366;2022-09-09T00:14:54;97751.41;;;12.29;72.05
14790;BME280;7486;51.010;10.366;2022-09-09T00:20:22;97770.47;;;12.49;71.48
14790;BME280;7486;51.010;10.366;2022-09-09T00:22:57;97746.31;;;12.27;71.37
14790;BME280;7486;51.010;10.366;2022-09-09T00:25:36;97623.38;;;11.62;70.83
14790;BME280;7486;51.010;10.366;2022-09-09T00:28:14;97782.91;;;12.66;70.67
14790;BME280;7486;51.010;10.366;2022-09-09T00:30:44;97759.84;;;12.49;70.58
14790;BME280;7486;51.010;10.366;2022-09-09T00:33:12;97739.72;;;12.30;70.89
14790;BME280;7486;51.010;10.366;2022-09-09T00:35:44;97758.81;;;12.38;70.73
14790;BME280;7486;51.010;10.366;2022-09-09T00:38:19;97732.91;;;12.22;70.58
14790;BME280;7486;51.010;10.366;2022-09-09T00:41:06;97706.53;;;12.09;70.44
14790;BME280;7486;51.010;10.366;2022-09-09T00:43:38;97716.13;;;12.10;70.78
14790;BME280;7486;51.010;10.366;2022-09-09T00:56:37;97732.41;;;12.13;70.43
14790;BME280;7486;51.010;10.366;2022-09-09T01:02:15;97761.81;;;12.00;71.19
14790;BME280;7486;51.010;10.366;2022-09-09T01:04:45;97499.81;;;10.42;70.95
14790;BME280;7486;51.010;10.366;2022-09-09T01:07:17;97799.75;;;12.19;71.07
14790;BME280;7486;51.010;10.366;2022-09-09T01:09:57;97796.13;;;12.02;71.97
14790;BME280;7486;51.010;10.366;2022-09-09T01:12:33;97736.31;;;11.51;72.74
14790;BME280;7486;51.010;10.366;2022-09-09T01:15:15;97737.13;;;11.52;73.13
14790;BME280;7486;51.010;10.366;2022-09-09T01:17:53;97790.00;;;12.01;73.07
14790;BME280;7486;51.010;10.366;2022-09-09T01:28:25;97672.22;;;11.54;72.48
14790;BME280;7486;51.010;10.366;2022-09-09T01:30:57;97777.97;;;12.29;73.04
14790;BME280;7486;51.010;10.366;2022-09-09T01:33:29;97721.69;;;12.08;72.14
14790;BME280;7486;51.010;10.366;2022-09-09T01:36:06;97604.00;;;11.32;72.19
14790;BME280;7486;51.010;10.366;2022-09-09T01:38:42;97732.94;;;11.92;72.73
14790;BME280;7486;51.010;10.366;2022-09-09T01:41:09;97531.06;;;10.69;72.50
14790;BME280;7486;51.010;10.366;2022-09-09T01:43:46;97741.34;;;12.19;72.92
14790;BME280;7486;51.010;10.366;2022-09-09T01:46:13;97761.41;;;12.27;72.80
14790;BME280;7486;51.010;10.366;2022-09-09T01:48:41;97728.50;;;12.16;72.84
14790;BME280;7486;51.010;10.366;2022-09-09T01:51:10;97652.00;;;11.71;72.42
14790;BME280;7486;51.010;10.366;2022-09-09T01:53:39;97718.81;;;12.21;72.64
14790;BME280;7486;51.010;10.366;2022-09-09T02:02:18;97784.38;;;12.74;72.61
14790;BME280;7486;51.010;10.366;2022-09-09T02:07:42;97705.69;;;12.38;72.71
14790;BME280;7486;51.010;10.366;2022-09-09T02:10:33;97710.19;;;12.38;72.53
14790;BME280;7486;51.010;10.366;2022-09-09T02:13:13;97737.84;;;12.60;72.50
14790;BME280;7486;51.010;10.366;2022-09-09T02:15:53;97691.00;;;12.24;72.41
14790;BME280;7486;51.010;10.366;2022-09-09T02:18:38;97717.56;;;12.47;72.62
14790;BME280;7486;51.010;10.366;2022-09-09T02:21:07;97746.88;;;12.70;72.12
14790;BME280;7486;51.010;10.366;2022-09-09T02:23:36;97702.34;;;12.43;72.37
14790;BME280;7486;51.010;10.366;2022-09-09T02:26:10;97689.41;;;12.46;71.83
14790;BME280;7486;51.010;10.366;2022-09-09T02:28:38;97714.03;;;12.65;71.83
14790;BME280;7486;51.010;10.366;2022-09-09T02:31:06;97707.53;;;12.49;72.00
14790;BME280;7486;51.010;10.366;2022-09-09T02:33:42;97722.94;;;12.59;72.15
14790;BME280;7486;51.010;10.366;2022-09-09T02:36:12;97765.81;;;12.97;71.57
14790;BME280;7486;51.010;10.366;2022-09-09T02:38:45;97743.03;;;12.90;71.35
14790;BME280;7486;51.010;10.366;2022-09-09T02:41:14;97717.63;;;12.70;71.28
14790;BME280;7486;51.010;10.366;2022-09-09T02:43:41;97662.16;;;12.39;70.92
14790;BME280;7486;51.010;10.366;2022-09-09T02:49:06;97773.50;;;13.34;70.48
14790;BME280;7486;51.010;10.366;2022-09-09T02:56:53;97684.91;;;12.82;70.09
14790;BME280;7486;51.010;10.366;2022-09-09T02:59:26;97747.38;;;13.19;69.68
14790;BME280;7486;51.010;10.366;2022-09-09T03:01:53;97639.22;;;12.56;69.71
14790;BME280;7486;51.010;10.366;2022-09-09T03:04:20;97731.91;;;13.16;69.62
14790;BME280;7486;51.010;10.366;2022-09-09T03:06:48;97671.41;;;12.83;69.48
14790;BME280;7486;51.010;10.366;2022-09-09T03:09:18;97771.72;;;13.39;69.51
14790;BME280;7486;51.010;10.366;2022-09-09T03:11:45;97758.81;;;13.31;69.60
14790;BME280;7486;51.010;10.366;2022-09-09T03:14:14;97765.03;;;13.37;69.41
14790;BME280;7486;51.010;10.366;2022-09-09T03:16:41;97788.16;;;13.59;69.01
14790;BME280;7486;51.010;10.366;2022-09-09T03:19:08;97729.25;;;13.16;69.26
14790;BME280;7486;51.010;10.366;2022-09-09T03:21:35;97768.50;;;13.37;69.11
14790;BME280;7486;51.010;10.366;2022-09-09T03:24:02;97726.63;;;13.04;69.78
14790;BME280;7486;51.010;10.366;2022-09-09T03:26:29;97771.78;;;13.16;71.56
14790;BME280;7486;51.010;10.366;2022-09-09T03:28:56;97687.81;;;12.57;72.76
14790;BME280;7486;51.010;10.366;2022-09-09T03:31:23;97686.88;;;12.74;72.80
14790;BME280;7486;51.010;10.366;2022-09-09T03:33:50;97618.75;;;12.22;73.47
14790;BME280;7486;51.010;10.366;2022-09-09T03:36:19;97722.69;;;12.95;73.36
14790;BME280;7486;51.010;10.366;2022-09-09T03:38:45;97710.66;;;12.93;74.03
14790;BME280;7486;51.010;10.366;2022-09-09T03:41:12;97704.31;;;12.94;73.91
14790;BME280;7486;51.010;10.366;2022-09-09T03:43:39;97705.22;;;12.88;74.19
14790;BME280;7486;51.010;10.366;2022-09-09T03:46:05;97700.28;;;12.80;74.40
14790;BME280;7486;51.010;10.366;2022-09-09T03:48:32;97561.84;;;11.83;74.76
14790;BME280;7486;51.010;10.366;2022-09-09T03:50:59;97780.22;;;13.24;74.86
14790;BME280;7486;51.010;10.366;2022-09-09T03:53:27;97720.88;;;12.84;75.26
14790;BME280;7486;51.010;10.366;2022-09-09T03:55:56;97766.25;;;13.06;75.63
14790;BME280;7486;51.010;10.366;2022-09-09T03:58:25;97736.22;;;12.82;75.62
14790;BME280;7486;51.010;10.366;2022-09-09T04:00:58;97773.66;;;13.04;75.07
14790;BME280;7486;51.010;10.366;2022-09-09T04:03:27;97690.34;;;12.52;75.35
14790;BME280;7486;51.010;10.366;2022-09-09T04:05:56;97705.34;;;12.46;75.26
14790;BME280;7486;51.010;10.366;2022-09-09T04:08:26;97704.66;;;12.39;75.43
14790;BME280;7486;51.010;10.366;2022-09-09T04:10:54;97740.84;;;12.63;75.16
14790;BME280;7486;51.010;10.366;2022-09-09T04:13:21;97698.75;;;12.37;75.03
14790;BME280;7486;51.010;10.366;2022-09-09T04:15:55;97603.22;;;11.72;74.82
14790;BME280;7486;51.010;10.366;2022-09-09T04:18:23;97762.47;;;12.67;75.51
14790;BME280;7486;51.010;10.366;2022-09-09T04:20:51;97765.53;;;12.52;75.62
14790;BME280;7486;51.010;10.366;2022-09-09T04:23:20;97734.06;;;12.26;75.38
14790;BME280;7486;51.010;10.366;2022-09-09T04:25:52;97533.41;;;11.07;75.34
14790;BME280;7486;51.010;10.366;2022-09-09T04:28:22;97774.41;;;12.46;75.35
14790;BME280;7486;51.010;10.366;2022-09-09T04:30:49;97709.28;;;11.91;75.77
14790;BME280;7486;51.010;10.366;2022-09-09T04:33:16;97700.03;;;11.82;75.99
14790;BME280;7486;51.010;10.366;2022-09-09T04:35:47;97763.22;;;12.03;76.30
14790;BME280;7486;51.010;10.366;2022-09-09T04:38:17;97698.56;;;11.56;76.81
14790;BME280;7486;51.010;10.366;2022-09-09T04:40:46;97481.06;;;10.25;76.74
14790;BME280;7486;51.010;10.366;2022-09-09T04:43:14;97779.19;;;12.14;76.43
14790;BME280;7486;51.010;10.366;2022-09-09T04:45:43;97737.34;;;11.68;76.77
14790;BME280;7486;51.010;10.366;2022-09-09T04:48:10;97600.03;;;10.93;76.46
14790;BME280;7486;51.010;10.366;2022-09-09T04:50:37;97632.00;;;10.80;77.92
14790;BME280;7486;51.010;10.366;2022-09-09T04:53:04;97784.56;;;11.78;78.39
14790;BME280;7486;51.010;10.366;2022-09-09T04:55:33;97742.53;;;11.45;79.05
14790;BME280;7486;51.010;10.366;2022-09-09T04:58:07;97703.81;;;11.26;78.76
14790;BME280;7486;51.010;10.366;2022-09-09T05:00:35;97641.56;;;10.99;78.18
14790;BME280;7486;51.010;10.366;2022-09-09T05:03:05;97746.63;;;11.78;77.60
14790;BME280;7486;51.010;10.366;2022-09-09T05:05:33;97781.16;;;12.19;77.00
14790;BME280;7486;51.010;10.366;2022-09-09T05:08:07;97741.97;;;11.91;76.69
14790;BME280;7486;51.010;10.366;2022-09-09T05:10:38;97756.78;;;12.10;76.66
14790;BME280;7486;51.010;10.366;2022-09-09T05:13:05;97788.13;;;12.43;75.81
14790;BME280;7486;51.010;10.366;2022-09-09T05:15:32;97715.22;;;12.04;75.15
14790;BME280;7486;51.010;10.366;2022-09-09T05:18:00;97789.44;;;12.52;74.39
14790;BME280;7486;51.010;10.366;2022-09-09T05:20:29;97722.47;;;12.09;74.91
14790;BME280;7486;51.010;10.366;2022-09-09T05:22:56;97720.88;;;12.08;74.58
14790;BME280;7486;51.010;10.366;2022-09-09T05:25:27;97677.97;;;11.69;74.84
14790;BME280;7486;51.010;10.366;2022-09-09T05:27:55;97742.44;;;12.00;75.09
14790;BME280;7486;51.010;10.366;2022-09-09T05:30:21;97799.41;;;12.27;75.62
14790;BME280;7486;51.010;10.366;2022-09-09T05:32:49;97751.31;;;11.94;75.80
14790;BME280;7486;51.010;10.366;2022-09-09T05:35:17;97717.50;;;11.59;76.55
14790;BME280;7486;51.010;10.366;2022-09-09T05:37:44;97799.72;;;11.78;78.48
14790;BME280;7486;51.010;10.366;2022-09-09T05:40:10;97809.13;;;11.92;78.67
14790;BME280;7486;51.010;10.366;2022-09-09T05:42:39;97715.78;;;11.65;77.57
14790;BME280;7486;51.010;10.366;2022-09-09T05:45:07;97798.88;;;12.07;76.68
14790;BME280;7486;51.010;10.366;2022-09-09T05:47:35;97797.97;;;12.13;76.84
14790;BME280;7486;51.010;10.366;2022-09-09T05:50:05;97751.16;;;11.89;76.34
14790;BME280;7486;51.010;10.366;2022-09-09T05:52:32;97696.31;;;11.71;76.04
14790;BME280;7486;51.010;10.366;2022-09-09T05:54:59;97808.69;;;12.36;76.02
14790;BME280;7486;51.010;10.366;2022-09-09T05:57:25;97648.88;;;11.33;76.69
14790;BME280;7486;51.010;10.366;2022-09-09T05:59:52;97726.56;;;11.82;76.72
14790;BME280;7486;51.010;10.366;2022-09-09T06:02:19;97730.47;;;11.79;77.54
14790;BME280;7486;51.010;10.366;2022-09-09T06:04:46;97650.34;;;11.29;77.68
14790;BME280;7486;51.010;10.366;2022-09-09T06:07:12;97707.16;;;11.69;78.06
14790;BME280;7486;51.010;10.366;2022-09-09T06:09:39;97818.41;;;12.42;78.75
14790;BME280;7486;51.010;10.366;2022-09-09T06:12:07;97714.28;;;11.69;79.78
14790;BME280;7486;51.010;10.366;2022-09-09T06:14:35;97791.78;;;12.19;80.25
14790;BME280;7486;51.010;10.366;2022-09-09T06:17:02;97733.28;;;11.96;78.76
14790;BME280;7486;51.010;10.366;2022-09-09T06:19:29;97760.34;;;12.16;77.76
14790;BME280;7486;51.010;10.366;2022-09-09T06:21:58;97770.44;;;12.26;77.60
14790;BME280;7486;51.010;10.366;2022-09-09T06:24:26;97771.63;;;12.41;77.47
14790;BME280;7486;51.010;10.366;2022-09-09T06:26:53;97754.06;;;12.40;76.80
14790;BME280;7486;51.010;10.366;2022-09-09T06:29:23;97793.03;;;12.58;77.12
14790;BME280;7486;51.010;10.366;2022-09-09T06:31:51;97788.69;;;12.63;77.70
14790;BME280;7486;51.010;10.366;2022-09-09T06:34:23;97751.44;;;12.52;78.46
14790;BME280;7486;51.010;10.366;2022-09-09T06:36:53;97767.31;;;12.70;78.83
14790;BME280;7486;51.010;10.366;2022-09-09T06:39:20;97755.28;;;12.79;78.50
14790;BME280;7486;51.010;10.366;2022-09-09T06:41:47;97748.09;;;12.91;78.53
14790;BME280;7486;51.010;10.366;2022-09-09T06:44:39;97609.97;;;12.21;78.14
14790;BME280;7486;51.010;10.366;2022-09-09T06:47:11;97742.19;;;13.24;78.94
14790;BME280;7486;51.010;10.366;2022-09-09T06:49:39;97723.16;;;13.44;77.34
14790;BME280;7486;51.010;10.366;2022-09-09T06:52:08;97805.03;;;14.21;75.67
14790;BME280;7486;51.010;10.366;2022-09-09T06:54:37;97723.13;;;13.84;74.70
14790;BME280;7486;51.010;10.366;2022-09-09T06:57:04;97772.69;;;14.13;72.97
14790;BME280;7486;51.010;10.366;2022-09-09T06:59:51;97724.09;;;13.78;73.25
14790;BME280;7486;51.010;10.366;2022-09-09T07:02:19;97780.63;;;14.24;72.47
14790;BME280;7486;51.010;10.366;2022-09-09T07:04:46;97671.50;;;13.68;72.11
14790;BME280;7486;51.010;10.366;2022-09-09T07:07:13;97739.69;;;14.14;71.95
14790;BME280;7486;51.010;10.366;2022-09-09T07:09:40;97782.84;;;14.44;71.11
14790;BME280;7486;51.010;10.366;2022-09-09T07:12:07;97733.84;;;14.00;70.93
14790;BME280;7486;51.010;10.366;2022-09-09T07:14:37;97715.41;;;13.82;71.44
14790;BME280;7486;51.010;10.366;2022-09-09T07:17:07;97730.22;;;13.78;71.62
14790;BME280;7486;51.010;10.366;2022-09-09T07:19:36;97755.59;;;13.97;71.43
14790;BME280;7486;51.010;10.366;2022-09-09T07:22:04;97746.16;;;13.90;71.47
14790;BME280;7486;51.010;10.366;2022-09-09T07:24:32;97784.81;;;14.20;72.26
14790;BME280;7486;51.010;10.366;2022-09-09T07:26:58;97772.28;;;14.21;72.83
14790;BME280;7486;51.010;10.366;2022-09-09T07:29:25;97729.19;;;14.07;71.01
14790;BME280;7486;51.010;10.366;2022-09-09T07:31:52;97788.56;;;14.69;70.87
14790;BME280;7486;51.010;10.366;2022-09-09T07:34:24;97814.59;;;14.79;69.51
14790;BME280;7486;51.010;10.366;2022-09-09T07:36:51;97806.19;;;14.70;70.45
14790;BME280;7486;51.010;10.366;2022-09-09T07:39:18;97739.19;;;14.17;70.73
14790;BME280;7486;51.010;10.366;2022-09-09T07:41:49;97796.16;;;14.61;70.12
14790;BME280;7486;51.010;10.366;2022-09-09T07:44:20;97762.81;;;14.42;69.68
14790;BME280;7486;51.010;10.366;2022-09-09T07:46:52;97722.16;;;14.18;68.78
14790;BME280;7486;51.010;10.366;2022-09-09T07:49:25;97777.91;;;14.69;69.86
14790;BME280;7486;51.010;10.366;2022-09-09T07:51:59;97795.13;;;14.79;70.34
14790;BME280;7486;51.010;10.366;2022-09-09T07:54:27;97744.66;;;14.55;68.52
14790;BME280;7486;51.010;10.366;2022-09-09T07:56:54;97812.63;;;15.08;68.66
14790;BME280;7486;51.010;10.366;2022-09-09T07:59:24;97798.41;;;15.02;68.91
14790;BME280;7486;51.010;10.366;2022-09-09T08:01:52;97745.53;;;14.61;67.82
14790;BME280;7486;51.010;10.366;2022-09-09T08:04:24;97847.53;;;15.23;67.41
14790;BME280;7486;51.010;10.366;2022-09-09T08:06:54;97848.34;;;15.40;68.14
14790;BME280;7486;51.010;10.366;2022-09-09T08:09:23;97850.53;;;15.43;68.31
14790;BME280;7486;51.010;10.366;2022-09-09T08:11:51;97819.91;;;15.29;69.54
14790;BME280;7486;51.010;10.366;2022-09-09T08:14:18;97768.94;;;15.14;67.05
14790;BME280;7486;51.010;10.366;2022-09-09T08:16:47;97691.88;;;14.74;67.49
14790;BME280;7486;51.010;10.366;2022-09-09T08:19:17;97786.38;;;15.38;67.84
14790;BME280;7486;51.010;10.366;2022-09-09T08:21:45;97821.34;;;15.80;65.99
14790;BME280;7486;51.010;10.366;2022-09-09T08:24:13;97854.34;;;16.12;66.48
14790;BME280;7486;51.010;10.366;2022-09-09T08:26:41;97854.97;;;16.19;65.46
14790;BME280;7486;51.010;10.366;2022-09-09T08:29:12;97860.47;;;16.35;64.96
14790;BME280;7486;51.010;10.366;2022-09-09T08:31:42;97860.16;;;16.31;66.19
14790;BME280;7486;51.010;10.366;2022-09-09T08:34:10;97861.97;;;16.52;64.79
14790;BME280;7486;51.010;10.366;2022-09-09T08:36:40;97869.06;;;16.37;64.07
14790;BME280;7486;51.010;10.366;2022-09-09T08:39:07;97817.66;;;16.08;64.15
14790;BME280;7486;51.010;10.366;2022-09-09T08:41:57;97861.78;;;16.59;65.29
14790;BME280;7486;51.010;10.366;2022-09-09T08:49:48;97812.53;;;16.55;62.79
14790;BME280;7486;51.010;10.366;2022-09-09T08:52:28;97818.91;;;16.49;62.76
14790;BME280;7486;51.010;10.366;2022-09-09T08:55:10;97864.34;;;16.75;62.80
14790;BME280;7486;51.010;10.366;2022-09-09T08:57:40;97821.59;;;16.49;63.03
14790;BME280;7486;51.010;10.366;2022-09-09T09:00:09;97788.78;;;16.27;63.98
14790;BME280;7486;51.010;10.366;2022-09-09T09:05:46;97830.34;;;16.71;63.03
14790;BME280;7486;51.010;10.366;2022-09-09T09:08:26;97769.09;;;16.69;61.25
14790;BME280;7486;51.010;10.366;2022-09-09T09:10:57;97837.25;;;16.99;60.14
14790;BME280;7486;51.010;10.366;2022-09-09T09:19:27;97879.59;;;17.07;62.64
14790;BME280;7486;51.010;10.366;2022-09-09T09:27:36;97812.41;;;17.03;61.35
14790;BME280;7486;51.010;10.366;2022-09-09T09:30:19;97882.44;;;17.27;59.09
14790;BME280;7486;51.010;10.366;2022-09-09T09:33:22;97872.25;;;17.24;60.08
14790;BME280;7486;51.010;10.366;2022-09-09T09:35:51;97825.28;;;17.06;60.08
14790;BME280;7486;51.010;10.366;2022-09-09T09:38:22;97820.31;;;16.88;60.70
14790;BME280;7486;51.010;10.366;2022-09-09T09:41:10;97808.19;;;17.12;61.26
14790;BME280;7486;51.010;10.366;2022-09-09T09:43:40;97841.09;;;17.08;60.83
14790;BME280;7486;51.010;10.366;2022-09-09T09:46:20;97820.06;;;17.27;61.22
14790;BME280;7486;51.010;10.366;2022-09-09T09:49:04;97872.66;;;17.90;60.37
14790;BME280;7486;51.010;10.366;2022-09-09T09:51:33;97746.84;;;17.53;60.99
14790;BME280;7486;51.010;10.366;2022-09-09T09:56:41;97798.78;;;18.24;58.55
14790;BME280;7486;51.010;10.366;2022-09-09T10:02:23;97850.38;;;18.87;57.10
14790;BME280;7486;51.010;10.366;2022-09-09T10:05:08;97844.47;;;18.80;55.61
14790;BME280;7486;51.010;10.366;2022-09-09T10:07:40;97812.50;;;18.53;53.88
14790;BME280;7486;51.010;10.366;2022-09-09T10:10:13;97730.16;;;18.28;54.97
14790;BME280;7486;51.010;10.366;2022-09-09T10:13:11;97828.34;;;18.95;54.49
14790;BME280;7486;51.010;10.366;2022-09-09T10:18:38;97859.25;;;19.28;53.21
14790;BME280;7486;51.010;10.366;2022-09-09T10:30:04;97765.28;;;19.17;52.47
14790;BME280;7486;51.010;10.366;2022-09-09T10:41:00;97796.41;;;19.98;51.48
14790;BME280;7486;51.010;10.366;2022-09-09T10:49:18;97758.88;;;18.93;47.84
14790;BME280;7486;51.010;10.366;2022-09-09T10:55:01;97820.56;;;18.88;49.20
14790;BME280;7486;51.010;10.366;2022-09-09T10:57:34;97793.72;;;18.43;49.86
14790;BME280;7486;51.010;10.366;2022-09-09T11:00:06;97729.59;;;18.01;51.81
14790;BME280;7486;51.010;10.366;2022-09-09T11:02:34;97784.88;;;18.32;50.98
14790;BME280;7486;51.010;10.366;2022-09-09T11:07:44;97763.44;;;18.67;52.22
14790;BME280;7486;51.010;10.366;2022-09-09T11:13:04;97641.44;;;17.99;49.33
14790;BME280;7486;51.010;10.366;2022-09-09T11:15:44;97826.50;;;18.90;50.12
14790;BME280;7486;51.010;10.366;2022-09-09T11:18:19;97776.22;;;18.05;52.38
14790;BME280;7486;51.010;10.366;2022-09-09T11:20:47;97687.75;;;17.74;54.06
14790;BME280;7486;51.010;10.366;2022-09-09T11:23:21;97761.84;;;18.71;51.10
14790;BME280;7486;51.010;10.366;2022-09-09T11:25:56;97796.16;;;19.00;49.50
14790;BME280;7486;51.010;10.366;2022-09-09T11:31:21;97827.25;;;19.36;49.54
14790;BME280;7486;51.010;10.366;2022-09-09T11:34:12;97818.13;;;19.37;50.47
14790;BME280;7486;51.010;10.366;2022-09-09T11:42:16;97806.91;;;18.80;52.11
14790;BME280;7486;51.010;10.366;2022-09-09T11:44:44;97693.75;;;18.42;52.68
14790;BME280;7486;51.010;10.366;2022-09-09T11:47:28;97818.69;;;19.19;52.20
14790;BME280;7486;51.010;10.366;2022-09-09T11:52:43;97784.06;;;19.07;53.30
14790;BME280;7486;51.010;10.366;2022-09-09T11:55:31;97821.09;;;19.26;52.89
14790;BME280;7486;51.010;10.366;2022-09-09T11:58:03;97775.75;;;19.19;52.43
14790;BME280;7486;51.010;10.366;2022-09-09T12:00:40;97746.22;;;18.99;51.85
14790;BME280;7486;51.010;10.366;2022-09-09T12:05:59;97725.91;;;18.62;52.24
14790;BME280;7486;51.010;10.366;2022-09-09T12:08:29;97761.53;;;19.13;52.29
14790;BME280;7486;51.010;10.366;2022-09-09T12:10:58;97772.22;;;19.29;50.88
14790;BME280;7486;51.010;10.366;2022-09-09T12:13:27;97764.94;;;19.39;50.93
14790;BME280;7486;51.010;10.366;2022-09-09T12:15:56;97700.09;;;18.97;51.33
14790;BME280;7486;51.010;10.366;2022-09-09T12:18:35;97756.41;;;19.22;52.00
14790;BME280;7486;51.010;10.366;2022-09-09T12:24:20;97779.50;;;19.23;50.71
14790;BME280;7486;51.010;10.366;2022-09-09T12:26:56;97732.88;;;18.58;51.08
14790;BME280;7486;51.010;10.366;2022-09-09T12:29:41;97768.28;;;18.76;51.23
14790;BME280;7486;51.010;10.366;2022-09-09T12:32:12;97809.78;;;19.39;50.68
14790;BME280;7486;51.010;10.366;2022-09-09T12:37:45;97798.22;;;19.43;48.29
14790;BME280;7486;51.010;10.366;2022-09-09T12:40:26;97820.53;;;19.39;49.24
14790;BME280;7486;51.010;10.366;2022-09-09T12:42:54;97762.38;;;18.79;48.18
14790;BME280;7486;51.010;10.366;2022-09-09T12:45:25;97743.88;;;18.47;48.98
14790;BME280;7486;51.010;10.366;2022-09-09T12:48:01;97539.84;;;17.22;49.36
14790;BME280;7486;51.010;10.366;2022-09-09T12:50:32;97782.22;;;18.67;49.74
14790;BME280;7486;51.010;10.366;2022-09-09T12:53:03;97830.25;;;19.25;47.85
14790;BME280;7486;51.010;10.366;2022-09-09T12:55:36;97819.25;;;19.21;47.58
14790;BME280;7486;51.010;10.366;2022-09-09T12:58:05;97780.34;;;18.63;47.49
14790;BME280;7486;51.010;10.366;2022-09-09T13:00:57;97816.56;;;18.96;48.23
14790;BME280;7486;51.010;10.366;2022-09-09T13:03:24;97780.59;;;18.56;47.84
14790;BME280;7486;51.010;10.366;2022-09-09T13:05:52;97817.09;;;18.78;47.21
14790;BME280;7486;51.010;10.366;2022-09-09T13:08:20;97783.00;;;18.43;47.68
14790;BME280;7486;51.010;10.366;2022-09-09T13:10:52;97806.09;;;18.54;48.64
14790;BME280;7486;51.010;10.366;2022-09-09T13:13:31;97763.16;;;18.39;49.99
14790;BME280;7486;51.010;10.366;2022-09-09T13:16:03;97781.69;;;18.60;49.14
14790;BME280;7486;51.010;10.366;2022-09-09T13:18:32;97706.03;;;18.13;48.81
14790;BME280;7486;51.010;10.366;2022-09-09T13:21:00;97804.75;;;18.82;50.08
14790;BME280;7486;51.010;10.366;2022-09-09T13:23:30;97777.13;;;18.61;50.08
14790;BME280;7486;51.010;10.366;2022-09-09T13:26:24;97793.47;;;19.10;47.67
14790;BME280;7486;51.010;10.366;2022-09-09T13:28:53;97762.84;;;19.06;46.24
14790;BME280;7486;51.010;10.366;2022-09-09T13:31:28;97783.00;;;19.18;44.68
14790;BME280;7486;51.010;10.366;2022-09-09T13:33:55;97785.31;;;19.45;45.63
14790;BME280;7486;51.010;10.366;2022-09-09T13:36:33;97781.00;;;19.54;44.56
14790;BME280;7486;51.010;10.366;2022-09-09T13:39:03;97785.53;;;19.64;43.77
14790;BME280;7486;51.010;10.366;2022-09-09T13:41:35;97714.97;;;19.43;43.32
14790;BME280;7486;51.010;10.366;2022-09-09T13:44:03;97724.34;;;19.51;44.32
14790;BME280;7486;51.010;10.366;2022-09-09T13:46:35;97770.41;;;19.83;44.09
14790;BME280;7486;51.010;10.366;2022-09-09T13:49:19;97744.59;;;19.92;43.13
14790;BME280;7486;51.010;10.366;2022-09-09T13:51:49;97758.28;;;19.96;41.24
14790;BME280;7486;51.010;10.366;2022-09-09T13:54:18;97770.16;;;19.85;40.39
14790;BME280;7486;51.010;10.366;2022-09-09T13:56:45;97744.16;;;19.65;41.29
14790;BME280;7486;51.010;10.366;2022-09-09T13:59:19;97776.63;;;19.79;42.59
14790;BME280;7486;51.010;10.366;2022-09-09T14:01:46;97745.38;;;19.29;41.69
14790;BME280;7486;51.010;10.366;2022-09-09T14:04:13;97682.41;;;18.86;41.91
14790;BME280;7486;51.010;10.366;2022-09-09T14:06:40;97761.53;;;19.13;42.62
14790;BME280;7486;51.010;10.366;2022-09-09T14:09:09;97768.25;;;18.91;41.71
14790;BME280;7486;51.010;10.366;2022-09-09T14:11:36;97733.38;;;18.81;41.53
14790;BME280;7486;51.010;10.366;2022-09-09T14:14:03;97714.09;;;18.58;41.04
14790;BME280;7486;51.010;10.366;2022-09-09T14:16:30;97702.28;;;18.69;42.61
14790;BME280;7486;51.010;10.366;2022-09-09T14:18:56;97712.88;;;19.25;40.58
14790;BME280;7486;51.010;10.366;2022-09-09T14:21:24;97726.19;;;19.60;40.50
14790;BME280;7486;51.010;10.366;2022-09-09T14:23:51;97736.91;;;19.60;41.32
14790;BME280;7486;51.010;10.366;2022-09-09T14:26:19;97529.59;;;18.55;40.51
14790;BME280;7486;51.010;10.366;2022-09-09T14:28:46;97683.88;;;19.81;41.75
14790;BME280;7486;51.010;10.366;2022-09-09T14:31:22;97751.22;;;20.10;41.65
14790;BME280;7486;51.010;10.366;2022-09-09T14:33:50;97631.41;;;19.50;41.69
14790;BME280;7486;51.010;10.366;2022-09-09T14:36:16;97664.38;;;19.65;42.04
14790;BME280;7486;51.010;10.366;2022-09-09T14:38:43;97714.13;;;20.07;41.67
14790;BME280;7486;51.010;10.366;2022-09-09T14:41:11;97755.41;;;20.21;42.84
14790;BME280;7486;51.010;10.366;2022-09-09T14:43:39;97742.03;;;20.11;43.90
14790;BME280;7486;51.010;10.366;2022-09-09T14:46:10;97733.34;;;19.85;44.66
14790;BME280;7486;51.010;10.366;2022-09-09T14:48:37;97728.13;;;19.45;46.18
14790;BME280;7486;51.010;10.366;2022-09-09T14:51:24;97716.16;;;19.17;47.09
14790;BME280;7486;51.010;10.366;2022-09-09T14:53:52;97752.53;;;19.58;46.92
14790;BME280;7486;51.010;10.366;2022-09-09T14:56:21;97707.56;;;19.10;47.52
14790;BME280;7486;51.010;10.366;2022-09-09T14:58:49;97651.34;;;18.54;48.24
14790;BME280;7486;51.010;10.366;2022-09-09T15:01:31;97747.28;;;19.23;48.51
14790;BME280;7486;51.010;10.366;2022-09-09T15:04:03;97749.97;;;19.28;48.91
14790;BME280;7486;51.010;10.366;2022-09-09T15:06:33;97709.44;;;19.19;49.49
14790;BME280;7486;51.010;10.366;2022-09-09T15:09:00;97763.53;;;19.57;49.30
14790;BME280;7486;51.010;10.366;2022-09-09T15:11:29;97756.38;;;19.37;49.02
14790;BME280;7486;51.010;10.366;2022-09-09T15:13:56;97764.16;;;19.34;50.52
14790;BME280;7486;51.010;10.366;2022-09-09T15:16:26;97762.06;;;19.15;49.56
14790;BME280;7486;51.010;10.366;2022-09-09T15:18:56;97754.03;;;18.90;50.10
14790;BME280;7486;51.010;10.366;2022-09-09T15:21:24;97703.38;;;18.48;50.56
14790;BME280;7486;51.010;10.366;2022-09-09T15:23:52;97748.94;;;18.94;49.97
14790;BME280;7486;51.010;10.366;2022-09-09T15:26:19;97741.66;;;18.94;49.31
14790;BME280;7486;51.010;10.366;2022-09-09T15:28:46;97733.91;;;18.78;49.34